Time;durP1;ratioP1;P1;durP2;ratioP2;P2;SDS_P1;SDS_P2;PMS_P1;PMS_P2;Temp;Humidity;BMP_temperature;BMP_pressure;BME280_temperature;BME280_humidity;BME280_pressure;Samples;Min_cycle;Max_cycle;Signal;HPM_P1;HPM_P2
2024/03/01 00:01:24;;;;;;;24.90;15.73;;;5.90;99.90;;;;;;4953853;28;20209;-54
2024/03/01 00:03:52;;;;;;;25.33;14.33;;;5.90;99.90;;;;;;4966406;28;20249;-55
2024/03/01 00:06:19;;;;;;;25.10;15.47;;;5.80;99.90;;;;;;4955780;28;20680;-54
2024/03/01 00:08:48;;;;;;;24.03;15.47;;;5.90;99.90;;;;;;4952442;28;20226;-53
2024/03/01 00:11:14;;;;;;;23.63;15.27;;;5.80;99.90;;;;;;4955067;28;20214;-55
2024/03/01 00:13:42;;;;;;;25.93;15.60;;;5.70;99.90;;;;;;4933459;28;20230;-56
2024/03/01 00:16:09;;;;;;;25.97;15.47;;;5.70;99.90;;;;;;4957262;28;20577;-55
2024/03/01 00:18:36;;;;;;;21.00;14.63;;;5.70;99.90;;;;;;4963916;28;20284;-53
2024/03/01 00:21:04;;;;;;;25.60;14.97;;;5.70;99.90;;;;;;4961166;28;20993;-53
2024/03/01 00:23:31;;;;;;;25.13;14.90;;;5.60;99.90;;;;;;4942560;28;23662;-55
2024/03/01 00:25:58;;;;;;;24.13;15.40;;;5.60;99.90;;;;;;4964207;28;20616;-54
2024/03/01 00:28:25;;;;;;;25.70;15.03;;;5.60;99.90;;;;;;4924533;28;20222;-54
2024/03/01 00:30:52;;;;;;;24.93;15.77;;;5.60;99.90;;;;;;4958333;28;20206;-55
2024/03/01 00:33:18;;;;;;;23.17;14.50;;;5.50;99.90;;;;;;4963427;28;20763;-54
2024/03/01 00:35:47;;;;;;;26.37;15.63;;;5.50;99.90;;;;;;4965147;28;20221;-54
2024/03/01 00:38:15;;;;;;;28.10;16.00;;;5.50;99.90;;;;;;4952298;28;20218;-53
2024/03/01 00:40:42;;;;;;;25.43;15.37;;;5.50;99.90;;;;;;4954420;28;20203;-54
2024/03/01 00:43:09;;;;;;;26.43;15.43;;;5.40;99.90;;;;;;4948348;28;20362;-53
2024/03/01 00:45:36;;;;;;;26.63;14.87;;;5.40;99.90;;;;;;4940503;28;20203;-53
2024/03/01 00:48:09;;;;;;;23.63;14.47;;;5.40;99.90;;;;;;4957334;28;20277;-56
2024/03/01 00:50:36;;;;;;;30.97;15.77;;;5.40;99.90;;;;;;4960660;28;20198;-56
2024/03/01 00:53:03;;;;;;;30.20;16.83;;;5.40;99.90;;;;;;4957544;28;20206;-56
2024/03/01 00:55:32;;;;;;;25.60;15.17;;;5.30;99.90;;;;;;4951378;28;20213;-55
2024/03/01 00:57:58;;;;;;;28.17;16.23;;;5.30;99.90;;;;;;4955459;28;20225;-56
2024/03/01 01:00:26;;;;;;;26.20;15.83;;;5.30;99.90;;;;;;4933164;28;20241;-56
2024/03/01 01:02:53;;;;;;;24.57;15.97;;;5.20;99.90;;;;;;4956883;28;20198;-56
2024/03/01 01:05:19;;;;;;;24.50;15.07;;;5.30;99.90;;;;;;4963420;28;20224;-55
2024/03/01 01:07:46;;;;;;;25.80;16.07;;;5.20;99.90;;;;;;4965014;28;20194;-55
2024/03/01 01:10:13;;;;;;;25.10;15.90;;;5.20;99.90;;;;;;4950787;28;20225;-54
2024/03/01 01:12:42;;;;;;;23.80;15.37;;;5.20;99.90;;;;;;4950534;28;20198;-56
2024/03/01 01:15:09;;;;;;;26.23;15.03;;;5.20;99.90;;;;;;4932053;28;20227;-53
2024/03/01 01:17:36;;;;;;;24.70;15.77;;;5.10;99.90;;;;;;4953651;28;20206;-56
2024/03/01 01:20:04;;;;;;;30.13;16.93;;;5.10;99.90;;;;;;4965081;28;20273;-56
2024/03/01 01:22:31;;;;;;;27.37;16.37;;;5.10;99.90;;;;;;4960871;28;20225;-55
2024/03/01 01:24:57;;;;;;;27.67;16.43;;;5.10;99.90;;;;;;4957634;28;20202;-55
2024/03/01 01:27:24;;;;;;;26.90;16.50;;;5.10;99.90;;;;;;4942344;28;20213;-55
2024/03/01 01:29:53;;;;;;;31.10;17.43;;;5.10;99.90;;;;;;4965894;28;20226;-56
2024/03/01 01:32:20;;;;;;;29.93;16.73;;;5.00;99.90;;;;;;4924039;28;20208;-55
2024/03/01 01:34:47;;;;;;;28.80;16.77;;;5.00;99.90;;;;;;4963019;28;20214;-51
2024/03/01 01:37:14;;;;;;;26.77;17.60;;;5.00;99.90;;;;;;4961638;28;21060;-53
2024/03/01 01:39:41;;;;;;;25.40;16.27;;;5.00;99.90;;;;;;4963178;28;20216;-56
2024/03/01 01:42:08;;;;;;;28.97;17.10;;;5.00;99.90;;;;;;4946323;28;20206;-54
2024/03/01 01:44:35;;;;;;;27.70;17.63;;;4.90;99.90;;;;;;4953754;28;20196;-55
2024/03/01 01:47:03;;;;;;;30.20;17.87;;;4.90;99.90;;;;;;4931237;28;20213;-54
2024/03/01 01:49:31;;;;;;;27.13;16.70;;;4.90;99.90;;;;;;4952884;28;20297;-53
2024/03/01 01:51:58;;;;;;;28.30;16.97;;;4.90;99.90;;;;;;4965035;28;20300;-56
2024/03/01 01:54:26;;;;;;;27.23;16.23;;;4.80;99.90;;;;;;4960659;28;20210;-55
2024/03/01 01:56:53;;;;;;;29.30;16.00;;;4.80;99.90;;;;;;4945190;28;20695;-52
2024/03/01 01:59:20;;;;;;;31.10;18.00;;;4.70;99.90;;;;;;4951598;28;20306;-54
2024/03/01 02:01:47;;;;;;;26.53;15.77;;;4.70;99.90;;;;;;4935073;28;20322;-53
2024/03/01 02:04:15;;;;;;;25.13;15.43;;;4.70;99.90;;;;;;4959471;28;20194;-55
2024/03/01 02:06:44;;;;;;;29.03;17.37;;;4.60;99.90;;;;;;4955557;28;20194;-53
2024/03/01 02:09:13;;;;;;;32.10;18.00;;;4.60;99.90;;;;;;4963469;28;20222;-53
2024/03/01 02:11:40;;;;;;;33.27;18.57;;;4.60;99.90;;;;;;4951658;28;20699;-53
2024/03/01 02:14:09;;;;;;;27.20;15.90;;;4.60;99.90;;;;;;4943001;28;20210;-51
2024/03/01 02:16:36;;;;;;;27.60;16.80;;;4.50;99.90;;;;;;4961802;28;20281;-52
2024/03/01 02:19:07;;;;;;;29.67;17.40;;;4.50;99.90;;;;;;4932275;28;20226;-54
2024/03/01 02:21:39;;;;;;;28.30;18.63;;;4.40;99.90;;;;;;4955491;28;20202;-52
2024/03/01 02:24:08;;;;;;;29.50;16.40;;;4.40;99.90;;;;;;4959755;28;20198;-51
2024/03/01 02:26:35;;;;;;;29.37;16.97;;;4.40;99.90;;;;;;4955515;28;20198;-54
2024/03/01 02:29:02;;;;;;;29.30;17.33;;;4.40;99.90;;;;;;4940870;28;21729;-54
2024/03/01 02:31:29;;;;;;;32.67;17.97;;;4.30;99.90;;;;;;4963112;28;20202;-54
2024/03/01 02:33:56;;;;;;;32.43;17.57;;;4.30;99.90;;;;;;4927742;28;20241;-54
2024/03/01 02:36:22;;;;;;;29.37;16.33;;;4.20;99.90;;;;;;4954924;28;20217;-52
2024/03/01 02:38:49;;;;;;;27.37;17.20;;;4.20;99.90;;;;;;4961900;28;20222;-54
2024/03/01 02:41:17;;;;;;;28.33;17.07;;;4.20;99.90;;;;;;4962567;28;20189;-54
2024/03/01 02:43:44;;;;;;;26.67;16.13;;;4.20;99.90;;;;;;4951787;28;20261;-53
2024/03/01 02:46:11;;;;;;;28.90;16.77;;;4.20;99.90;;;;;;4945603;28;20291;-54
2024/03/01 02:48:38;;;;;;;31.93;18.50;;;4.20;99.90;;;;;;4935070;28;20230;-55
2024/03/01 02:51:05;;;;;;;31.07;18.30;;;4.10;99.90;;;;;;4952006;28;20229;-50
2024/03/01 02:53:33;;;;;;;32.67;18.67;;;4.10;99.90;;;;;;4963696;28;20652;-52
2024/03/01 02:55:59;;;;;;;31.07;17.87;;;4.10;99.90;;;;;;4959691;28;20919;-51
2024/03/01 02:58:27;;;;;;;28.40;18.07;;;4.10;99.90;;;;;;4954644;28;20629;-56
2024/03/01 03:00:55;;;;;;;31.10;18.27;;;4.10;99.90;;;;;;4947937;28;20193;-53
2024/03/01 03:03:22;;;;;;;30.63;18.83;;;4.00;99.90;;;;;;4930207;28;20288;-50
2024/03/01 03:05:49;;;;;;;33.27;18.43;;;4.00;99.90;;;;;;4952197;28;20553;-54
2024/03/01 03:08:16;;;;;;;28.90;17.50;;;4.00;99.90;;;;;;4958813;28;20202;-54
2024/03/01 03:10:42;;;;;;;33.97;18.70;;;3.90;99.90;;;;;;4964594;28;20198;-53
2024/03/01 03:13:09;;;;;;;30.07;18.20;;;4.00;99.90;;;;;;4964992;28;20284;-53
2024/03/01 03:15:39;;;;;;;31.20;18.13;;;3.90;99.90;;;;;;4959328;28;20300;-53
2024/03/01 03:18:05;;;;;;;30.77;17.77;;;3.90;99.90;;;;;;4954323;28;20200;-55
2024/03/01 03:20:35;;;;;;;29.13;17.00;;;3.90;99.90;;;;;;4937291;28;20210;-55
2024/03/01 03:23:02;;;;;;;30.40;18.07;;;3.90;99.90;;;;;;4954610;28;20197;-55
2024/03/01 03:25:29;;;;;;;30.40;17.00;;;3.90;99.90;;;;;;4967975;28;20198;-54
2024/03/01 03:27:56;;;;;;;29.93;17.27;;;3.90;99.90;;;;;;4961655;28;20277;-54
2024/03/01 03:30:23;;;;;;;33.87;17.93;;;3.80;99.90;;;;;;4958733;28;20296;-56
2024/03/01 03:32:51;;;;;;;30.37;17.20;;;3.80;99.90;;;;;;4954840;28;20566;-54
2024/03/01 03:35:18;;;;;;;27.33;17.07;;;3.80;99.90;;;;;;4936013;28;20242;-54
2024/03/01 03:37:45;;;;;;;32.60;18.20;;;3.80;99.90;;;;;;4958029;28;20204;-54
2024/03/01 03:40:14;;;;;;;33.97;18.93;;;3.80;99.90;;;;;;4964635;28;20214;-50
2024/03/01 03:42:41;;;;;;;25.90;16.73;;;3.70;99.90;;;;;;4966501;28;20665;-53
2024/03/01 03:45:09;;;;;;;34.20;18.43;;;3.70;99.90;;;;;;4954455;28;20873;-56
2024/03/01 03:47:37;;;;;;;31.27;17.60;;;3.70;99.90;;;;;;4956542;28;20248;-53
2024/03/01 03:50:07;;;;;;;30.27;17.80;;;3.70;99.90;;;;;;4931307;28;20226;-54
2024/03/01 03:52:34;;;;;;;28.83;17.20;;;3.70;99.90;;;;;;4958004;28;20267;-52
2024/03/01 03:55:04;;;;;;;28.23;17.43;;;3.70;99.90;;;;;;4963092;28;20244;-54
2024/03/01 03:57:31;;;;;;;31.13;17.97;;;3.60;99.90;;;;;;4966663;28;20214;-57
2024/03/01 03:59:59;;;;;;;33.07;19.00;;;3.60;99.90;;;;;;4954694;28;20222;-54
2024/03/01 04:02:26;;;;;;;32.60;18.70;;;3.60;99.90;;;;;;4955406;28;20202;-55
2024/03/01 04:04:53;;;;;;;30.27;17.93;;;3.60;99.90;;;;;;4962468;28;20249;-54
2024/03/01 04:07:21;;;;;;;31.10;18.23;;;3.60;99.90;;;;;;4935781;28;20218;-54
2024/03/01 04:09:48;;;;;;;31.37;17.47;;;3.60;99.90;;;;;;4954142;28;20214;-54
2024/03/01 04:12:15;;;;;;;31.37;17.33;;;3.50;99.90;;;;;;4964498;28;20468;-54
2024/03/01 04:14:42;;;;;;;30.00;17.97;;;3.50;99.90;;;;;;4956462;28;20225;-53
2024/03/01 04:17:10;;;;;;;33.13;18.07;;;3.50;99.90;;;;;;4945269;28;20218;-54
2024/03/01 04:19:37;;;;;;;35.57;18.73;;;3.50;99.90;;;;;;4964884;28;20749;-55
2024/03/01 04:22:04;;;;;;;31.00;17.17;;;3.50;99.90;;;;;;4930327;28;20519;-55
2024/03/01 04:24:32;;;;;;;32.83;17.47;;;3.50;99.90;;;;;;4957742;28;20229;-54
2024/03/01 04:26:59;;;;;;;28.87;17.30;;;3.50;99.90;;;;;;4962773;28;20863;-51
2024/03/01 04:29:28;;;;;;;35.20;19.27;;;3.50;99.90;;;;;;4966147;28;20641;-55
2024/03/01 04:31:55;;;;;;;31.20;18.37;;;3.40;99.90;;;;;;4945062;28;20296;-53
2024/03/01 04:34:23;;;;;;;31.43;17.27;;;3.50;99.90;;;;;;4965051;28;20217;-51
2024/03/01 04:36:50;;;;;;;34.60;18.30;;;3.50;99.90;;;;;;4944899;28;20313;-54
2024/03/01 04:39:17;;;;;;;29.40;17.53;;;3.50;99.90;;;;;;4946589;28;20333;-54
2024/03/01 04:41:45;;;;;;;33.57;18.07;;;3.50;99.90;;;;;;4964277;28;20257;-50
2024/03/01 04:44:12;;;;;;;30.97;17.83;;;3.50;99.90;;;;;;4964139;28;20186;-54
2024/03/01 04:46:41;;;;;;;35.27;18.67;;;3.50;99.90;;;;;;4965673;28;20249;-53
2024/03/01 04:49:08;;;;;;;32.13;18.03;;;3.50;99.90;;;;;;4944887;28;20221;-53
2024/03/01 04:51:35;;;;;;;32.87;18.43;;;3.50;99.90;;;;;;4965258;28;20194;-54
2024/03/01 04:54:01;;;;;;;33.47;19.57;;;3.50;99.90;;;;;;4931534;28;20198;-55
2024/03/01 04:56:28;;;;;;;32.80;18.33;;;3.50;99.90;;;;;;4956518;28;20622;-52
2024/03/01 04:58:57;;;;;;;35.93;18.47;;;3.40;99.90;;;;;;4959614;28;20771;-52
2024/03/01 05:01:24;;;;;;;30.87;18.97;;;3.50;99.90;;;;;;4963041;28;20298;-52
2024/03/01 05:03:50;;;;;;;31.63;17.13;;;3.50;99.90;;;;;;4943963;28;20285;-52
2024/03/01 05:06:18;;;;;;;34.40;18.77;;;3.40;99.90;;;;;;4963399;28;20198;-54
2024/03/01 05:08:45;;;;;;;32.73;18.33;;;3.50;99.90;;;;;;4934764;28;20579;-55
2024/03/01 05:11:13;;;;;;;31.13;17.93;;;3.50;99.90;;;;;;4955036;28;20197;-54
2024/03/01 05:13:41;;;;;;;33.17;18.13;;;3.40;99.90;;;;;;4964823;28;20217;-51
2024/03/01 05:16:09;;;;;;;31.13;18.03;;;3.40;99.90;;;;;;4961847;28;20518;-54
2024/03/01 05:18:36;;;;;;;33.50;17.23;;;3.40;99.90;;;;;;4954958;28;20233;-52
2024/03/01 05:21:04;;;;;;;29.03;17.40;;;3.40;99.90;;;;;;4949359;28;20284;-54
2024/03/01 05:23:31;;;;;;;35.43;19.33;;;3.40;99.90;;;;;;4933837;28;20716;-54
2024/03/01 05:25:58;;;;;;;29.60;16.77;;;3.40;99.90;;;;;;4952377;28;20668;-53
2024/03/01 05:28:25;;;;;;;33.50;17.97;;;3.40;99.90;;;;;;4957823;28;20212;-52
2024/03/01 05:30:52;;;;;;;33.43;18.57;;;3.40;99.90;;;;;;4945414;28;20673;-52
2024/03/01 05:33:20;;;;;;;32.00;18.23;;;3.40;99.90;;;;;;4952876;28;20228;-53
2024/03/01 05:35:47;;;;;;;30.73;17.60;;;3.30;99.90;;;;;;4945690;28;20230;-53
2024/03/01 05:38:14;;;;;;;30.13;16.97;;;3.30;99.90;;;;;;4940419;28;20225;-53
2024/03/01 05:40:40;;;;;;;33.37;18.53;;;3.30;99.90;;;;;;4958904;28;20205;-50
2024/03/01 05:43:07;;;;;;;32.23;18.60;;;3.30;99.90;;;;;;4946845;28;20206;-53
2024/03/01 05:45:35;;;;;;;32.00;17.03;;;3.30;99.90;;;;;;4963955;28;20194;-52
2024/03/01 05:48:03;;;;;;;32.20;17.30;;;3.20;99.90;;;;;;4963297;28;20218;-53
2024/03/01 05:50:31;;;;;;;31.00;17.57;;;3.20;99.90;;;;;;4947443;28;20367;-56
2024/03/01 05:52:58;;;;;;;31.53;18.27;;;3.20;99.90;;;;;;4961272;28;20201;-55
2024/03/01 05:55:26;;;;;;;32.73;17.33;;;3.20;99.90;;;;;;4933772;28;20193;-54
2024/03/01 05:57:53;;;;;;;34.10;18.30;;;3.20;99.90;;;;;;4954590;28;20700;-54
2024/03/01 06:00:21;;;;;;;30.83;17.93;;;3.20;99.90;;;;;;4954977;28;20217;-56
2024/03/01 06:02:49;;;;;;;31.37;17.90;;;3.20;99.90;;;;;;4967268;28;20676;-54
2024/03/01 06:05:16;;;;;;;31.73;17.47;;;3.20;99.90;;;;;;4948601;28;20210;-55
2024/03/01 06:07:45;;;;;;;36.50;17.67;;;3.20;99.90;;;;;;4950146;28;20346;-54
2024/03/01 06:10:14;;;;;;;32.43;17.53;;;3.10;99.90;;;;;;4929940;28;20320;-53
2024/03/01 06:12:41;;;;;;;31.63;17.00;;;3.10;99.90;;;;;;4959987;28;20205;-55
2024/03/01 06:15:08;;;;;;;35.90;19.17;;;3.20;99.90;;;;;;4945373;28;20718;-53
2024/03/01 06:17:36;;;;;;;31.77;17.37;;;3.10;99.90;;;;;;4958162;28;20276;-55
2024/03/01 06:20:05;;;;;;;32.50;17.57;;;3.10;99.90;;;;;;4952668;28;20719;-53
2024/03/01 06:22:31;;;;;;;32.87;18.43;;;3.10;99.90;;;;;;4951151;28;20284;-54
2024/03/01 06:25:00;;;;;;;35.87;18.67;;;3.10;99.90;;;;;;4965644;28;20723;-55
2024/03/01 06:27:27;;;;;;;34.30;18.13;;;3.10;99.90;;;;;;4931979;28;20197;-52
2024/03/01 06:29:54;;;;;;;33.37;18.63;;;3.20;99.90;;;;;;4947859;28;20312;-54
2024/03/01 06:32:21;;;;;;;30.63;17.00;;;3.20;99.90;;;;;;4966146;28;20272;-53
2024/03/01 06:34:48;;;;;;;30.50;18.17;;;3.20;99.90;;;;;;4965743;28;20202;-52
2024/03/01 06:37:16;;;;;;;31.40;17.90;;;3.20;99.90;;;;;;4949855;28;20218;-54
2024/03/01 06:39:43;;;;;;;34.90;18.93;;;3.20;99.90;;;;;;4957822;28;20688;-52
2024/03/01 06:42:11;;;;;;;34.50;17.90;;;3.20;99.90;;;;;;4930065;28;20221;-51
2024/03/01 06:44:38;;;;;;;33.27;19.37;;;3.20;99.90;;;;;;4954789;28;20224;-54
2024/03/01 06:47:05;;;;;;;35.30;19.37;;;3.20;99.90;;;;;;4953180;28;20244;-53
2024/03/01 06:49:32;;;;;;;30.60;18.90;;;3.20;99.90;;;;;;4962976;28;20229;-54
2024/03/01 06:51:59;;;;;;;33.23;17.47;;;3.20;99.90;;;;;;4952534;28;20363;-52
2024/03/01 06:54:25;;;;;;;34.27;19.10;;;3.30;99.90;;;;;;4942252;28;20202;-52
2024/03/01 06:56:52;;;;;;;31.63;18.93;;;3.30;99.90;;;;;;4932397;28;20237;-50
2024/03/01 06:59:20;;;;;;;32.73;17.67;;;3.30;99.90;;;;;;4954781;28;20233;-54
2024/03/01 07:01:47;;;;;;;33.20;17.93;;;3.30;99.90;;;;;;4960797;28;20549;-53
2024/03/01 07:04:14;;;;;;;34.70;18.33;;;3.40;99.90;;;;;;4951819;28;20254;-51
2024/03/01 07:06:41;;;;;;;33.17;17.83;;;3.40;99.90;;;;;;4955325;28;20193;-51
2024/03/01 07:09:07;;;;;;;32.67;18.83;;;3.40;99.90;;;;;;4961916;28;20237;-50
2024/03/01 07:11:35;;;;;;;34.20;19.10;;;3.40;99.90;;;;;;4952166;28;20217;-49
2024/03/01 07:14:01;;;;;;;31.47;18.23;;;3.40;99.90;;;;;;4919806;28;20245;-51
2024/03/01 07:16:30;;;;;;;32.73;17.50;;;3.50;99.90;;;;;;4951445;28;20247;-51
2024/03/01 07:18:57;;;;;;;33.43;17.73;;;3.50;99.90;;;;;;4955875;28;20700;-53
2024/03/01 07:21:23;;;;;;;37.10;19.37;;;3.60;99.90;;;;;;4950238;28;20195;-53
2024/03/01 07:23:50;;;;;;;32.10;17.90;;;3.60;99.90;;;;;;4948749;28;20547;-51
2024/03/01 07:26:17;;;;;;;31.90;17.80;;;3.70;99.90;;;;;;4949582;28;20269;-53
2024/03/01 07:28:44;;;;;;;34.47;19.20;;;3.70;99.90;;;;;;4921654;28;20222;-52
2024/03/01 07:31:11;;;;;;;34.50;18.13;;;3.80;99.90;;;;;;4945048;28;20751;-49
2024/03/01 07:33:40;;;;;;;34.97;17.83;;;3.90;99.90;;;;;;4960136;28;20201;-50
2024/03/01 07:36:09;;;;;;;36.40;18.83;;;3.90;99.90;;;;;;4954620;28;20707;-52
2024/03/01 07:38:36;;;;;;;35.93;18.43;;;4.00;99.90;;;;;;4946025;28;20240;-47
2024/03/01 07:41:03;;;;;;;35.63;18.90;;;4.00;99.90;;;;;;4942414;28;20198;-54
2024/03/01 07:43:31;;;;;;;33.37;19.43;;;4.10;99.90;;;;;;4927819;28;20281;-47
2024/03/01 07:45:58;;;;;;;38.07;19.33;;;4.20;99.90;;;;;;4938076;28;20210;-50
2024/03/01 07:48:25;;;;;;;36.17;19.73;;;4.30;99.90;;;;;;4963405;28;20536;-51
2024/03/01 07:50:54;;;;;;;33.13;18.43;;;4.40;99.90;;;;;;4952186;28;20214;-50
2024/03/01 07:53:21;;;;;;;37.23;19.50;;;4.40;99.90;;;;;;4951950;28;20210;-53
2024/03/01 07:55:48;;;;;;;38.40;18.63;;;4.50;99.90;;;;;;4960159;28;20190;-52
2024/03/01 07:58:17;;;;;;;33.40;17.67;;;4.60;99.90;;;;;;4933176;28;20229;-54
2024/03/01 08:00:43;;;;;;;37.40;19.57;;;4.70;99.90;;;;;;4946728;28;20210;-52
2024/03/01 08:03:11;;;;;;;33.40;18.83;;;4.80;99.90;;;;;;4950266;28;20225;-49
2024/03/01 08:05:39;;;;;;;35.23;18.77;;;4.90;99.90;;;;;;4948910;28;20222;-49
2024/03/01 08:08:09;;;;;;;34.73;19.13;;;5.00;99.90;;;;;;4962839;28;20195;-53
2024/03/01 08:10:40;;;;;;;34.63;18.63;;;5.10;99.90;;;;;;4956320;28;20206;-53
2024/03/01 08:13:07;;;;;;;34.33;19.73;;;5.20;99.90;;;;;;4954635;28;20292;-54
2024/03/01 08:15:36;;;;;;;34.57;18.40;;;5.30;99.90;;;;;;4929670;28;20221;-53
2024/03/01 08:18:14;;;;;;;34.73;17.50;;;5.30;99.90;;;;;;4947938;28;20224;-55
2024/03/01 08:20:56;;;;;;;30.30;17.43;;;5.40;99.90;;;;;;4955794;28;20201;-55
2024/03/01 08:23:26;;;;;;;33.80;18.40;;;5.40;99.90;;;;;;4967311;28;20558;-49
2024/03/01 08:25:53;;;;;;;27.80;16.73;;;5.50;99.90;;;;;;4952111;28;20206;-52
2024/03/01 08:28:26;;;;;;;29.00;18.03;;;5.50;99.90;;;;;;4958932;28;20561;-50
2024/03/01 08:30:53;;;;;;;29.27;16.97;;;5.60;99.90;;;;;;4926054;28;20739;-50
2024/03/01 08:33:21;;;;;;;30.40;17.87;;;5.70;99.90;;;;;;4958127;28;20217;-49
2024/03/01 08:35:49;;;;;;;31.57;18.13;;;5.80;99.90;;;;;;4952432;28;20220;-52
2024/03/01 08:38:58;;;;;;;33.07;18.53;;;5.90;99.90;;;;;;4959544;28;20213;-48
2024/03/01 08:41:28;;;;;;;31.60;16.90;;;6.00;99.90;;;;;;4954708;28;20658;-53
2024/03/01 08:43:57;;;;;;;30.70;18.20;;;6.10;99.90;;;;;;4953826;28;20202;-50
2024/03/01 08:46:31;;;;;;;27.50;16.50;;;6.20;99.90;;;;;;4934945;28;20202;-49
2024/03/01 08:48:59;;;;;;;32.60;17.23;;;6.30;99.90;;;;;;4946221;28;20257;-53
2024/03/01 08:51:26;;;;;;;33.20;17.17;;;6.40;99.90;;;;;;4956777;28;20213;-48
2024/03/01 08:54:01;;;;;;;32.70;17.03;;;6.50;99.90;;;;;;4954381;28;20664;-52
2024/03/01 08:56:35;;;;;;;29.93;16.87;;;6.60;99.90;;;;;;4955842;28;20264;-50
2024/03/01 08:59:07;;;;;;;32.47;17.47;;;6.70;99.90;;;;;;4954832;28;20292;-49
2024/03/01 09:01:46;;;;;;;30.73;17.17;;;6.70;99.90;;;;;;4935955;28;20233;-54
2024/03/01 09:04:19;;;;;;;27.37;17.67;;;6.90;99.90;;;;;;4948366;28;20205;-52
2024/03/01 09:06:52;;;;;;;30.50;16.23;;;7.00;99.90;;;;;;4954652;28;20718;-50
2024/03/01 09:09:24;;;;;;;29.87;16.73;;;7.00;99.90;;;;;;4962663;28;20298;-51
2024/03/01 09:11:54;;;;;;;28.53;16.50;;;7.10;99.90;;;;;;4951167;28;20221;-51
2024/03/01 09:14:30;;;;;;;27.13;17.20;;;7.20;99.90;;;;;;4965067;28;20202;-51
2024/03/01 09:16:58;;;;;;;23.13;15.03;;;7.30;99.90;;;;;;4924939;28;20225;-51
2024/03/01 09:19:26;;;;;;;25.30;15.80;;;7.50;99.90;;;;;;4956416;28;20226;-49
2024/03/01 09:21:53;;;;;;;27.07;15.47;;;7.50;99.90;;;;;;4955762;28;20198;-49
2024/03/01 09:24:22;;;;;;;28.07;16.70;;;7.60;99.90;;;;;;4955538;28;20198;-50
2024/03/01 09:26:51;;;;;;;27.10;15.50;;;7.70;99.90;;;;;;4953038;28;20203;-50
2024/03/01 09:29:35;;;;;;;27.30;17.00;;;7.80;99.90;;;;;;4964572;28;20280;-53
2024/03/01 09:32:04;;;;;;;26.37;16.53;;;7.90;99.90;;;;;;4922226;28;20225;-53
2024/03/01 09:34:37;;;;;;;29.40;16.60;;;8.10;99.90;;;;;;4967894;28;20661;-52
2024/03/01 09:37:12;;;;;;;26.33;15.73;;;8.20;99.90;;;;;;4948214;28;20226;-52
2024/03/01 09:39:41;;;;;;;24.87;15.20;;;8.30;99.90;;;;;;4946101;28;20231;-49
2024/03/01 09:42:28;;;;;;;26.13;15.40;;;8.30;99.90;;;;;;4951374;28;20995;-49
2024/03/01 09:45:27;;;;;;;26.57;15.53;;;8.30;99.90;;;;;;4954717;28;20632;-49
2024/03/01 09:48:12;;;;;;;27.70;16.07;;;8.40;99.90;;;;;;4934751;28;20194;-51
2024/03/01 09:50:50;;;;;;;27.07;16.53;;;8.50;99.90;;;;;;4955585;28;20675;-51
2024/03/01 09:53:31;;;;;;;27.93;14.80;;;8.60;99.90;;;;;;4957220;28;20492;-51
2024/03/01 09:56:11;;;;;;;24.03;14.73;;;8.70;99.90;;;;;;4944910;28;20665;-54
2024/03/01 09:58:45;;;;;;;25.77;15.27;;;8.80;99.90;;;;;;4954828;28;20242;-52
2024/03/01 10:01:18;;;;;;;24.93;15.03;;;8.80;99.90;;;;;;4952113;28;20304;-54
2024/03/01 10:03:58;;;;;;;26.50;15.97;;;8.90;99.90;;;;;;4952361;28;20202;-51
2024/03/01 10:06:51;;;;;;;27.10;15.33;;;9.00;99.90;;;;;;4954725;28;20209;-51
2024/03/01 10:09:25;;;;;;;27.83;16.27;;;9.00;99.90;;;;;;4953532;28;20217;-51
2024/03/01 10:12:02;;;;;;;24.90;13.87;;;9.20;99.90;;;;;;4948638;28;20296;-53
2024/03/01 10:14:43;;;;;;;23.73;14.13;;;9.20;99.90;;;;;;4952999;28;20880;-51
2024/03/01 10:17:27;;;;;;;24.97;15.60;;;9.20;99.90;;;;;;4957079;28;20249;-51
2024/03/01 10:20:19;;;;;;;24.57;14.33;;;9.30;99.90;;;;;;4932246;28;20319;-51
2024/03/01 10:23:00;;;;;;;22.27;14.53;;;9.40;99.90;;;;;;4952946;28;20190;-50
2024/03/01 10:25:41;;;;;;;26.87;14.50;;;9.50;99.90;;;;;;4945923;28;20249;-49
2024/03/01 10:28:30;;;;;;;23.97;14.17;;;9.60;99.90;;;;;;4946241;28;20213;-52
2024/03/01 10:31:00;;;;;;;26.07;14.70;;;9.70;99.90;;;;;;4963317;28;20190;-51
2024/03/01 10:33:45;;;;;;;23.63;14.37;;;9.90;99.90;;;;;;4953916;28;20214;-48
2024/03/01 10:36:20;;;;;;;22.60;14.33;;;10.00;99.90;;;;;;4935266;28;20329;-47
2024/03/01 10:38:59;;;;;;;27.63;15.03;;;10.10;99.90;;;;;;4950614;28;20880;-54
2024/03/01 10:41:34;;;;;;;23.43;15.17;;;10.20;99.90;;;;;;4945891;28;20292;-56
2024/03/01 10:44:12;;;;;;;21.97;14.20;;;10.30;99.90;;;;;;4949757;28;20209;-58
2024/03/01 10:46:47;;;;;;;21.67;13.00;;;10.30;99.90;;;;;;4961474;28;20878;-55
2024/03/01 10:49:21;;;;;;;26.33;15.20;;;10.30;99.90;;;;;;4954166;28;20229;-56
2024/03/01 10:51:53;;;;;;;19.73;13.80;;;10.30;99.90;;;;;;4922457;28;21875;-53
2024/03/01 10:54:21;;;;;;;16.97;12.77;;;10.30;99.90;;;;;;4965550;28;20699;-53
2024/03/01 10:56:49;;;;;;;22.37;14.43;;;10.50;99.90;;;;;;4951231;28;20275;-55
2024/03/01 10:59:21;;;;;;;21.53;14.27;;;10.60;99.90;;;;;;4943046;28;20223;-52
2024/03/01 11:01:53;;;;;;;23.43;14.83;;;10.60;99.90;;;;;;4955873;28;20250;-51
2024/03/01 11:04:30;;;;;;;21.53;14.43;;;10.70;99.90;;;;;;4957342;28;20280;-53
2024/03/01 11:07:15;;;;;;;21.43;14.20;;;10.70;99.90;;;;;;4928337;28;21550;-56
2024/03/01 11:09:52;;;;;;;20.60;12.83;;;10.70;99.90;;;;;;4951542;28;20308;-52
2024/03/01 11:12:27;;;;;;;24.77;14.70;;;10.80;99.90;;;;;;4952949;28;20264;-54
2024/03/01 11:15:02;;;;;;;23.53;14.47;;;10.80;99.90;;;;;;4942694;28;20202;-50
2024/03/01 11:17:31;;;;;;;24.93;15.03;;;10.80;99.90;;;;;;4964865;28;20692;-51
2024/03/01 11:20:10;;;;;;;24.37;14.30;;;10.80;99.90;;;;;;4943887;28;20222;-50
2024/03/01 11:22:44;;;;;;;22.50;14.77;;;10.90;99.90;;;;;;4926727;28;20232;-53
2024/03/01 11:25:14;;;;;;;20.33;12.50;;;10.90;99.90;;;;;;4952658;28;20224;-52
2024/03/01 11:27:48;;;;;;;22.03;12.97;;;11.00;99.90;;;;;;4948906;28;20273;-56
2024/03/01 11:30:19;;;;;;;19.10;12.97;;;11.00;99.90;;;;;;4942454;28;20265;-54
2024/03/01 11:32:50;;;;;;;25.23;13.80;;;11.00;99.90;;;;;;4963609;28;20189;-51
2024/03/01 11:35:29;;;;;;;21.97;13.83;;;11.10;99.90;;;;;;4956330;28;20257;-49
2024/03/01 11:38:02;;;;;;;22.83;13.17;;;11.10;99.90;;;;;;4966753;28;20288;-49
2024/03/01 11:40:44;;;;;;;23.43;14.00;;;11.10;99.90;;;;;;4924556;28;20436;-54
2024/03/01 11:43:27;;;;;;;20.43;13.47;;;11.20;99.90;;;;;;4951909;28;20217;-50
2024/03/01 11:46:15;;;;;;;20.10;12.93;;;11.20;99.90;;;;;;4942400;28;20874;-50
2024/03/01 11:48:55;;;;;;;21.60;12.87;;;11.20;99.90;;;;;;4961623;28;20205;-49
2024/03/01 11:51:42;;;;;;;22.20;12.60;;;11.20;99.90;;;;;;4966184;28;20210;-50
2024/03/01 11:54:39;;;;;;;17.73;11.73;;;11.20;99.90;;;;;;4937072;28;20214;-52
2024/03/01 11:57:15;;;;;;;19.57;12.43;;;11.10;99.90;;;;;;4959708;28;20208;-54
2024/03/01 12:00:03;;;;;;;18.40;12.97;;;11.10;99.90;;;;;;4955783;28;20276;-53
2024/03/01 12:02:39;;;;;;;22.33;12.27;;;11.10;99.90;;;;;;4954861;28;20214;-54
2024/03/01 12:05:19;;;;;;;19.03;12.17;;;11.10;99.90;;;;;;4956547;28;20197;-52
2024/03/01 12:08:06;;;;;;;20.60;13.60;;;11.20;99.90;;;;;;4952904;28;20213;-50
2024/03/01 12:10:44;;;;;;;23.47;12.50;;;11.30;99.90;;;;;;4933958;28;20253;-50
2024/03/01 12:13:16;;;;;;;18.50;12.20;;;11.40;99.90;;;;;;4952923;28;20236;-53
2024/03/01 12:15:53;;;;;;;17.50;12.17;;;11.50;99.90;;;;;;4960819;28;20248;-51
2024/03/01 12:18:30;;;;;;;24.83;13.13;;;11.50;99.90;;;;;;4955943;28;20272;-53
2024/03/01 12:21:07;;;;;;;18.00;12.40;;;11.50;99.90;;;;;;4955952;28;20196;-57
2024/03/01 12:23:46;;;;;;;16.80;11.73;;;11.60;99.90;;;;;;4967352;28;20210;-55
2024/03/01 12:26:17;;;;;;;19.97;12.33;;;11.60;99.90;;;;;;4933579;28;20214;-53
2024/03/01 12:28:55;;;;;;;19.13;11.83;;;11.60;99.90;;;;;;4948016;28;20225;-57
2024/03/01 12:31:36;;;;;;;21.03;12.70;;;11.70;99.90;;;;;;4954836;28;20907;-52
2024/03/01 12:34:20;;;;;;;17.70;11.57;;;11.70;99.90;;;;;;4955903;28;20198;-51
2024/03/01 12:36:59;;;;;;;18.63;12.73;;;11.70;99.90;;;;;;4956535;28;20300;-57
2024/03/01 12:39:30;;;;;;;20.50;12.40;;;11.70;99.90;;;;;;4966395;28;20224;-51
2024/03/01 12:42:06;;;;;;;17.67;11.20;;;11.80;99.90;;;;;;4931115;28;20214;-52
2024/03/01 12:44:48;;;;;;;13.80;8.97;;;11.80;99.90;;;;;;4944186;28;20205;-53
2024/03/01 12:47:30;;;;;;;17.40;9.67;;;11.80;99.90;;;;;;4959120;28;20198;-53
2024/03/01 12:50:10;;;;;;;12.53;9.63;;;11.80;99.90;;;;;;4943554;28;20308;-48
2024/03/01 12:52:59;;;;;;;12.70;9.20;;;11.80;99.90;;;;;;4963969;28;20221;-56